Cape Canaveral AFS Skid Strip Cocoa Beach US
ICAO: KXMR
IATA: XMR
Category: Medium
Scheduled Services: No

Elevation: 10 ft
TransAlt. 18000 ft.

Airport Communications:
ORLANDO APP/DEP:134.95
PMSV METRO:344.6
CAPE TWR:118.625
:239.05

KXMR Zoom In..

Runways:

(A) RW 13 length 10000 ft width 200 ft
---- / hdg 131

(B) RW 31 length 10000 ft width 200 ft
---- / hdg 311

Location; KXMR
Day. 23 / Time. 09.56 Zulu
* Altimeter: 29.81
* Temperature: 25° c. 77°f.
* Wind from: 250° Speed 08 kn.
Dewpoint: 23° c.
Visibility: 10 Statute Miles.
Clouds: Scattered 1000 ft.

KXMR 230956Z AUTO 25008KT 10SM SCT100 25/23 A2981 RMK AO2 SLP098 T02470225 $


Wind From 250°
Speed 08 kn.

 
 
jpsmedia.com for Web Design worldairports.se 2018   terms of use